sensor_id;sensor_type;location;lat;lon;timestamp;pressure;altitude;pressure_sealevel;temperature;humidity
61292;BME280;47165;42.664;23.368;2023-06-10T00:01:59;94631.28;;;21.29;69.04
61292;BME280;47165;42.664;23.368;2023-06-10T00:04:26;94628.78;;;21.27;69.16
61292;BME280;47165;42.664;23.368;2023-06-10T00:06:52;94638.91;;;21.32;68.50
61292;BME280;47165;42.664;23.368;2023-06-10T00:09:19;94635.06;;;21.26;67.83
61292;BME280;47165;42.664;23.368;2023-06-10T00:11:46;94637.06;;;21.24;68.54
61292;BME280;47165;42.664;23.368;2023-06-10T00:14:11;94641.38;;;21.25;68.41
61292;BME280;47165;42.664;23.368;2023-06-10T00:16:37;94643.13;;;21.00;67.73
61292;BME280;47165;42.664;23.368;2023-06-10T00:19:04;94631.78;;;20.82;68.58
61292;BME280;47165;42.664;23.368;2023-06-10T00:21:31;94641.41;;;20.91;67.92
61292;BME280;47165;42.664;23.368;2023-06-10T00:27:31;94631.94;;;20.80;67.81
61292;BME280;47165;42.664;23.368;2023-06-10T00:30:04;94632.75;;;20.81;69.48
61292;BME280;47165;42.664;23.368;2023-06-10T00:32:35;94636.06;;;20.83;69.50
61292;BME280;47165;42.664;23.368;2023-06-10T00:35:01;94637.31;;;20.62;69.23
61292;BME280;47165;42.664;23.368;2023-06-10T00:37:26;94643.78;;;20.42;68.78
61292;BME280;47165;42.664;23.368;2023-06-10T00:39:54;94641.31;;;20.14;70.75
61292;BME280;47165;42.664;23.368;2023-06-10T00:42:19;94642.03;;;20.24;71.07
61292;BME280;47165;42.664;23.368;2023-06-10T00:44:45;94633.81;;;20.36;70.06
61292;BME280;47165;42.664;23.368;2023-06-10T00:47:10;94636.03;;;20.48;70.94
61292;BME280;47165;42.664;23.368;2023-06-10T00:49:36;94631.47;;;20.59;70.53
61292;BME280;47165;42.664;23.368;2023-06-10T00:52:03;94640.63;;;20.64;70.78
61292;BME280;47165;42.664;23.368;2023-06-10T00:54:30;94641.63;;;20.63;71.20
61292;BME280;47165;42.664;23.368;2023-06-10T00:56:56;94634.13;;;20.59;70.01
61292;BME280;47165;42.664;23.368;2023-06-10T00:59:21;94639.47;;;20.67;69.89
61292;BME280;47165;42.664;23.368;2023-06-10T01:01:48;94645.69;;;20.76;69.66
61292;BME280;47165;42.664;23.368;2023-06-10T01:04:14;94640.66;;;20.73;69.11
61292;BME280;47165;42.664;23.368;2023-06-10T01:09:23;94643.75;;;20.86;70.24
61292;BME280;47165;42.664;23.368;2023-06-10T01:12:01;94644.03;;;20.83;70.00
61292;BME280;47165;42.664;23.368;2023-06-10T01:14:28;94644.00;;;20.75;70.87
61292;BME280;47165;42.664;23.368;2023-06-10T01:16:54;94639.31;;;20.68;70.35
61292;BME280;47165;42.664;23.368;2023-06-10T01:19:20;94644.53;;;20.78;70.03
61292;BME280;47165;42.664;23.368;2023-06-10T01:21:45;94647.31;;;20.77;68.85
61292;BME280;47165;42.664;23.368;2023-06-10T01:24:14;94646.16;;;20.79;69.46
61292;BME280;47165;42.664;23.368;2023-06-10T01:26:44;94644.19;;;20.81;68.94
61292;BME280;47165;42.664;23.368;2023-06-10T01:29:24;94646.69;;;20.83;69.88
61292;BME280;47165;42.664;23.368;2023-06-10T01:34:56;94647.13;;;20.70;69.43
61292;BME280;47165;42.664;23.368;2023-06-10T01:37:24;94647.44;;;20.67;69.48
61292;BME280;47165;42.664;23.368;2023-06-10T01:39:52;94646.47;;;20.68;69.20
61292;BME280;47165;42.664;23.368;2023-06-10T01:42:18;94638.66;;;20.66;69.18
61292;BME280;47165;42.664;23.368;2023-06-10T01:44:44;94642.09;;;20.59;68.90
61292;BME280;47165;42.664;23.368;2023-06-10T01:47:10;94640.56;;;20.56;69.09
61292;BME280;47165;42.664;23.368;2023-06-10T01:49:35;94635.22;;;20.48;69.32
61292;BME280;47165;42.664;23.368;2023-06-10T01:52:01;94623.91;;;20.46;69.12
61292;BME280;47165;42.664;23.368;2023-06-10T01:54:26;94621.94;;;20.48;69.13
61292;BME280;47165;42.664;23.368;2023-06-10T01:56:52;94626.91;;;20.43;69.36
61292;BME280;47165;42.664;23.368;2023-06-10T01:59:17;94629.75;;;20.49;68.99
61292;BME280;47165;42.664;23.368;2023-06-10T02:01:42;94624.59;;;20.48;69.92
61292;BME280;47165;42.664;23.368;2023-06-10T02:04:08;94628.59;;;20.52;69.73
61292;BME280;47165;42.664;23.368;2023-06-10T02:06:33;94630.94;;;20.55;69.53
61292;BME280;47165;42.664;23.368;2023-06-10T02:09:00;94620.72;;;20.60;70.11
61292;BME280;47165;42.664;23.368;2023-06-10T02:11:26;94623.66;;;20.57;69.33
61292;BME280;47165;42.664;23.368;2023-06-10T02:13:52;94621.25;;;20.64;70.49
61292;BME280;47165;42.664;23.368;2023-06-10T02:16:17;94620.41;;;20.63;70.94
61292;BME280;47165;42.664;23.368;2023-06-10T02:18:44;94614.25;;;20.63;71.89
61292;BME280;47165;42.664;23.368;2023-06-10T02:21:09;94617.38;;;20.58;70.57
61292;BME280;47165;42.664;23.368;2023-06-10T02:23:35;94615.09;;;20.63;70.63
61292;BME280;47165;42.664;23.368;2023-06-10T02:26:01;94598.28;;;20.55;70.24
61292;BME280;47165;42.664;23.368;2023-06-10T02:28:27;94605.81;;;20.59;70.42
61292;BME280;47165;42.664;23.368;2023-06-10T02:30:52;94604.50;;;20.63;70.24
61292;BME280;47165;42.664;23.368;2023-06-10T02:33:18;94601.00;;;20.63;71.35
61292;BME280;47165;42.664;23.368;2023-06-10T02:35:45;94600.03;;;20.64;71.53
61292;BME280;47165;42.664;23.368;2023-06-10T02:38:10;94602.50;;;20.65;70.96
61292;BME280;47165;42.664;23.368;2023-06-10T02:40:36;94602.84;;;20.70;70.21
61292;BME280;47165;42.664;23.368;2023-06-10T02:43:01;94597.69;;;20.69;69.74
61292;BME280;47165;42.664;23.368;2023-06-10T02:45:27;94601.16;;;20.61;69.79
61292;BME280;47165;42.664;23.368;2023-06-10T02:47:52;94591.22;;;20.63;70.12
61292;BME280;47165;42.664;23.368;2023-06-10T02:50:17;94593.91;;;20.72;70.53
61292;BME280;47165;42.664;23.368;2023-06-10T02:52:43;94597.25;;;20.74;70.24
61292;BME280;47165;42.664;23.368;2023-06-10T02:55:08;94592.91;;;20.73;70.58
61292;BME280;47165;42.664;23.368;2023-06-10T02:57:34;94589.28;;;20.74;70.86
61292;BME280;47165;42.664;23.368;2023-06-10T03:00:00;94586.94;;;20.70;71.84
61292;BME280;47165;42.664;23.368;2023-06-10T03:02:27;94591.09;;;20.73;72.20
61292;BME280;47165;42.664;23.368;2023-06-10T03:04:55;94592.25;;;20.70;72.27
61292;BME280;47165;42.664;23.368;2023-06-10T03:07:21;94593.09;;;20.79;72.61
61292;BME280;47165;42.664;23.368;2023-06-10T03:09:46;94597.59;;;20.79;71.22
61292;BME280;47165;42.664;23.368;2023-06-10T03:12:12;94594.78;;;20.80;71.99
61292;BME280;47165;42.664;23.368;2023-06-10T03:14:37;94594.94;;;20.79;71.21
61292;BME280;47165;42.664;23.368;2023-06-10T03:17:04;94603.25;;;20.84;71.22
61292;BME280;47165;42.664;23.368;2023-06-10T03:19:31;94594.78;;;20.80;71.00
61292;BME280;47165;42.664;23.368;2023-06-10T03:22:10;94601.91;;;20.80;71.62
61292;BME280;47165;42.664;23.368;2023-06-10T03:24:36;94605.53;;;20.79;71.05
61292;BME280;47165;42.664;23.368;2023-06-10T03:27:02;94618.00;;;20.78;71.01
61292;BME280;47165;42.664;23.368;2023-06-10T03:29:30;94609.53;;;20.83;71.50
61292;BME280;47165;42.664;23.368;2023-06-10T03:31:55;94612.69;;;20.78;72.00
61292;BME280;47165;42.664;23.368;2023-06-10T03:34:21;94624.78;;;20.81;71.77
61292;BME280;47165;42.664;23.368;2023-06-10T03:36:48;94624.16;;;20.87;72.39
61292;BME280;47165;42.664;23.368;2023-06-10T03:39:14;94629.16;;;20.90;72.50
61292;BME280;47165;42.664;23.368;2023-06-10T03:41:40;94627.47;;;20.89;72.29
61292;BME280;47165;42.664;23.368;2023-06-10T03:44:05;94619.34;;;20.82;72.16
61292;BME280;47165;42.664;23.368;2023-06-10T03:46:31;94634.91;;;20.85;72.30
61292;BME280;47165;42.664;23.368;2023-06-10T03:48:56;94630.47;;;20.86;72.34
61292;BME280;47165;42.664;23.368;2023-06-10T03:51:22;94634.09;;;20.85;72.57
61292;BME280;47165;42.664;23.368;2023-06-10T03:53:48;94625.63;;;20.81;72.44
61292;BME280;47165;42.664;23.368;2023-06-10T03:56:13;94622.47;;;20.78;73.67
61292;BME280;47165;42.664;23.368;2023-06-10T03:58:38;94624.78;;;20.81;73.38
61292;BME280;47165;42.664;23.368;2023-06-10T04:01:04;94614.47;;;20.69;72.98
61292;BME280;47165;42.664;23.368;2023-06-10T04:03:29;94618.28;;;20.75;73.93
61292;BME280;47165;42.664;23.368;2023-06-10T04:05:55;94627.25;;;20.74;74.41
61292;BME280;47165;42.664;23.368;2023-06-10T04:08:20;94622.28;;;20.79;73.78
61292;BME280;47165;42.664;23.368;2023-06-10T04:10:46;94626.94;;;20.77;74.43
61292;BME280;47165;42.664;23.368;2023-06-10T04:13:11;94629.94;;;20.82;73.73
61292;BME280;47165;42.664;23.368;2023-06-10T04:15:36;94625.63;;;20.81;73.56
61292;BME280;47165;42.664;23.368;2023-06-10T04:18:02;94635.78;;;20.86;73.84
61292;BME280;47165;42.664;23.368;2023-06-10T04:20:28;94631.09;;;20.80;74.10
61292;BME280;47165;42.664;23.368;2023-06-10T04:22:53;94634.72;;;20.79;74.34
61292;BME280;47165;42.664;23.368;2023-06-10T04:25:19;94638.44;;;20.86;73.83
61292;BME280;47165;42.664;23.368;2023-06-10T04:27:45;94640.56;;;20.82;74.33
61292;BME280;47165;42.664;23.368;2023-06-10T04:30:11;94638.22;;;20.79;74.93
61292;BME280;47165;42.664;23.368;2023-06-10T04:32:36;94632.09;;;20.79;73.88
61292;BME280;47165;42.664;23.368;2023-06-10T04:35:02;94641.75;;;20.88;73.23
61292;BME280;47165;42.664;23.368;2023-06-10T04:37:27;94640.44;;;20.92;72.85
61292;BME280;47165;42.664;23.368;2023-06-10T04:39:54;94637.59;;;20.94;72.99
61292;BME280;47165;42.664;23.368;2023-06-10T04:42:19;94639.13;;;20.96;72.32
61292;BME280;47165;42.664;23.368;2023-06-10T04:44:45;94634.63;;;20.88;72.09
61292;BME280;47165;42.664;23.368;2023-06-10T04:47:10;94628.09;;;20.75;72.67
61292;BME280;47165;42.664;23.368;2023-06-10T04:49:36;94629.44;;;20.79;73.66
61292;BME280;47165;42.664;23.368;2023-06-10T04:52:01;94631.44;;;20.85;73.88
61292;BME280;47165;42.664;23.368;2023-06-10T04:54:29;94631.28;;;20.86;72.45
61292;BME280;47165;42.664;23.368;2023-06-10T04:56:54;94618.50;;;20.82;71.47
61292;BME280;47165;42.664;23.368;2023-06-10T04:59:20;94626.97;;;20.85;72.84
61292;BME280;47165;42.664;23.368;2023-06-10T05:01:45;94628.47;;;20.88;72.81
61292;BME280;47165;42.664;23.368;2023-06-10T05:04:10;94628.66;;;20.95;73.52
61292;BME280;47165;42.664;23.368;2023-06-10T05:06:36;94627.34;;;20.99;74.08
61292;BME280;47165;42.664;23.368;2023-06-10T05:09:02;94629.38;;;21.05;72.82
61292;BME280;47165;42.664;23.368;2023-06-10T05:11:27;94632.19;;;21.03;73.35
61292;BME280;47165;42.664;23.368;2023-06-10T05:13:52;94635.50;;;21.05;73.09
61292;BME280;47165;42.664;23.368;2023-06-10T05:16:18;94627.88;;;21.02;73.29
61292;BME280;47165;42.664;23.368;2023-06-10T05:18:43;94629.22;;;21.06;72.29
61292;BME280;47165;42.664;23.368;2023-06-10T05:21:09;94623.41;;;21.03;72.22
61292;BME280;47165;42.664;23.368;2023-06-10T05:23:35;94626.34;;;21.00;72.13
61292;BME280;47165;42.664;23.368;2023-06-10T05:26:00;94630.84;;;20.99;72.61
61292;BME280;47165;42.664;23.368;2023-06-10T05:28:25;94638.84;;;21.07;71.81
61292;BME280;47165;42.664;23.368;2023-06-10T05:30:51;94628.22;;;21.07;71.72
61292;BME280;47165;42.664;23.368;2023-06-10T05:33:16;94631.69;;;21.08;71.43
61292;BME280;47165;42.664;23.368;2023-06-10T05:35:42;94630.19;;;21.05;71.53
61292;BME280;47165;42.664;23.368;2023-06-10T05:38:07;94638.34;;;21.12;71.40
61292;BME280;47165;42.664;23.368;2023-06-10T05:40:33;94629.88;;;21.08;71.30
61292;BME280;47165;42.664;23.368;2023-06-10T05:42:58;94619.75;;;21.12;70.88
61292;BME280;47165;42.664;23.368;2023-06-10T05:45:23;94628.91;;;21.18;71.09
61292;BME280;47165;42.664;23.368;2023-06-10T05:47:49;94621.63;;;21.20;70.87
61292;BME280;47165;42.664;23.368;2023-06-10T05:50:15;94637.06;;;21.24;71.18
61292;BME280;47165;42.664;23.368;2023-06-10T05:52:40;94633.94;;;21.29;72.01
61292;BME280;47165;42.664;23.368;2023-06-10T05:55:06;94636.59;;;21.37;72.00
61292;BME280;47165;42.664;23.368;2023-06-10T05:57:32;94641.31;;;21.43;71.18
61292;BME280;47165;42.664;23.368;2023-06-10T05:59:57;94634.66;;;21.47;71.80
61292;BME280;47165;42.664;23.368;2023-06-10T06:02:23;94642.28;;;21.50;71.77
61292;BME280;47165;42.664;23.368;2023-06-10T06:04:48;94641.31;;;21.52;70.70
61292;BME280;47165;42.664;23.368;2023-06-10T06:07:14;94642.31;;;21.59;70.78
61292;BME280;47165;42.664;23.368;2023-06-10T06:09:39;94644.31;;;21.57;70.57
61292;BME280;47165;42.664;23.368;2023-06-10T06:12:05;94648.13;;;21.62;70.54
61292;BME280;47165;42.664;23.368;2023-06-10T06:14:32;94638.84;;;21.66;70.16
61292;BME280;47165;42.664;23.368;2023-06-10T06:17:02;94642.03;;;21.78;70.27
61292;BME280;47165;42.664;23.368;2023-06-10T06:19:27;94641.66;;;21.81;70.30
61292;BME280;47165;42.664;23.368;2023-06-10T06:21:53;94634.22;;;21.85;70.51
61292;BME280;47165;42.664;23.368;2023-06-10T06:24:18;94642.34;;;21.92;70.61
61292;BME280;47165;42.664;23.368;2023-06-10T06:26:44;94634.22;;;21.93;71.53
61292;BME280;47165;42.664;23.368;2023-06-10T06:29:10;94632.38;;;22.02;71.79
61292;BME280;47165;42.664;23.368;2023-06-10T06:31:36;94637.19;;;22.06;71.31
61292;BME280;47165;42.664;23.368;2023-06-10T06:34:01;94637.69;;;22.10;70.64
61292;BME280;47165;42.664;23.368;2023-06-10T06:36:27;94641.53;;;22.24;70.43
61292;BME280;47165;42.664;23.368;2023-06-10T06:38:52;94628.09;;;22.25;68.86
61292;BME280;47165;42.664;23.368;2023-06-10T06:41:18;94636.38;;;22.30;66.94
61292;BME280;47165;42.664;23.368;2023-06-10T06:43:43;94632.53;;;22.25;65.75
61292;BME280;47165;42.664;23.368;2023-06-10T06:46:09;94634.22;;;22.26;65.19
61292;BME280;47165;42.664;23.368;2023-06-10T06:48:35;94629.41;;;22.13;64.07
61292;BME280;47165;42.664;23.368;2023-06-10T06:51:00;94625.72;;;22.22;64.79
61292;BME280;47165;42.664;23.368;2023-06-10T06:53:25;94621.59;;;22.28;65.36
61292;BME280;47165;42.664;23.368;2023-06-10T06:55:51;94627.56;;;22.38;65.49
61292;BME280;47165;42.664;23.368;2023-06-10T06:58:17;94622.75;;;22.42;64.33
61292;BME280;47165;42.664;23.368;2023-06-10T07:00:42;94627.38;;;22.48;64.96
61292;BME280;47165;42.664;23.368;2023-06-10T07:03:07;94621.19;;;22.56;64.68
61292;BME280;47165;42.664;23.368;2023-06-10T07:05:33;94624.47;;;22.66;63.94
61292;BME280;47165;42.664;23.368;2023-06-10T07:07:58;94618.16;;;22.75;63.67
61292;BME280;47165;42.664;23.368;2023-06-10T07:10:25;94622.63;;;22.83;63.58
61292;BME280;47165;42.664;23.368;2023-06-10T07:12:51;94618.28;;;22.82;62.50
61292;BME280;47165;42.664;23.368;2023-06-10T07:15:16;94613.31;;;22.79;62.12
61292;BME280;47165;42.664;23.368;2023-06-10T07:17:42;94613.09;;;22.88;61.79
61292;BME280;47165;42.664;23.368;2023-06-10T07:20:08;94614.63;;;22.83;61.32
61292;BME280;47165;42.664;23.368;2023-06-10T07:22:34;94607.31;;;22.85;61.42
61292;BME280;47165;42.664;23.368;2023-06-10T07:24:59;94611.00;;;22.76;60.50
61292;BME280;47165;42.664;23.368;2023-06-10T07:27:25;94609.28;;;22.91;60.96
61292;BME280;47165;42.664;23.368;2023-06-10T07:29:51;94606.06;;;22.56;61.58
61292;BME280;47165;42.664;23.368;2023-06-10T07:32:17;94603.00;;;22.76;61.23
61292;BME280;47165;42.664;23.368;2023-06-10T07:34:43;94614.75;;;22.50;61.74
61292;BME280;47165;42.664;23.368;2023-06-10T07:37:08;94612.00;;;22.75;61.39
61292;BME280;47165;42.664;23.368;2023-06-10T07:39:34;94599.75;;;22.97;62.01
61292;BME280;47165;42.664;23.368;2023-06-10T07:42:00;94610.84;;;23.17;62.19
61292;BME280;47165;42.664;23.368;2023-06-10T07:44:25;94607.31;;;23.24;58.82
61292;BME280;47165;42.664;23.368;2023-06-10T07:46:51;94607.44;;;23.31;57.93
61292;BME280;47165;42.664;23.368;2023-06-10T07:49:16;94608.78;;;23.27;57.80
61292;BME280;47165;42.664;23.368;2023-06-10T07:51:42;94619.34;;;23.43;56.64
61292;BME280;47165;42.664;23.368;2023-06-10T07:54:07;94605.03;;;23.44;53.50
61292;BME280;47165;42.664;23.368;2023-06-10T07:56:33;94601.66;;;23.50;54.37
61292;BME280;47165;42.664;23.368;2023-06-10T07:58:58;94602.59;;;23.58;54.00
61292;BME280;47165;42.664;23.368;2023-06-10T08:01:23;94605.44;;;23.56;54.11
61292;BME280;47165;42.664;23.368;2023-06-10T08:03:49;94607.59;;;23.61;52.87
61292;BME280;47165;42.664;23.368;2023-06-10T08:06:15;94608.91;;;23.65;52.81
61292;BME280;47165;42.664;23.368;2023-06-10T08:08:42;94608.06;;;23.64;52.87
61292;BME280;47165;42.664;23.368;2023-06-10T08:11:10;94600.72;;;23.66;51.60
61292;BME280;47165;42.664;23.368;2023-06-10T08:13:36;94601.56;;;23.67;50.93
61292;BME280;47165;42.664;23.368;2023-06-10T08:16:02;94598.94;;;23.59;50.65
61292;BME280;47165;42.664;23.368;2023-06-10T08:18:28;94593.13;;;23.55;50.14
61292;BME280;47165;42.664;23.368;2023-06-10T08:20:54;94586.88;;;23.71;51.07
61292;BME280;47165;42.664;23.368;2023-06-10T08:23:19;94580.47;;;23.80;52.36
61292;BME280;47165;42.664;23.368;2023-06-10T08:25:45;94582.59;;;23.85;52.02
61292;BME280;47165;42.664;23.368;2023-06-10T08:28:10;94586.50;;;23.97;52.92
61292;BME280;47165;42.664;23.368;2023-06-10T08:30:36;94581.59;;;23.86;51.15
61292;BME280;47165;42.664;23.368;2023-06-10T08:33:01;94581.16;;;23.51;49.17
61292;BME280;47165;42.664;23.368;2023-06-10T08:35:27;94581.59;;;23.86;50.04
61292;BME280;47165;42.664;23.368;2023-06-10T08:37:52;94571.22;;;23.91;51.21
61292;BME280;47165;42.664;23.368;2023-06-10T08:40:17;94564.34;;;23.97;49.64
61292;BME280;47165;42.664;23.368;2023-06-10T08:42:48;94572.91;;;24.07;48.80
61292;BME280;47165;42.664;23.368;2023-06-10T08:45:17;94572.84;;;24.15;50.04
61292;BME280;47165;42.664;23.368;2023-06-10T08:47:45;94567.59;;;24.22;48.02
61292;BME280;47165;42.664;23.368;2023-06-10T08:50:11;94557.56;;;24.24;49.11
61292;BME280;47165;42.664;23.368;2023-06-10T08:52:37;94567.25;;;24.40;49.78
61292;BME280;47165;42.664;23.368;2023-06-10T08:57:37;94559.47;;;24.53;50.00
61292;BME280;47165;42.664;23.368;2023-06-10T09:00:03;94559.19;;;24.63;49.03
61292;BME280;47165;42.664;23.368;2023-06-10T09:02:31;94559.28;;;24.69;48.59
61292;BME280;47165;42.664;23.368;2023-06-10T09:04:56;94553.66;;;24.79;47.76
61292;BME280;47165;42.664;23.368;2023-06-10T09:07:23;94546.59;;;24.72;45.84
61292;BME280;47165;42.664;23.368;2023-06-10T09:09:49;94548.16;;;24.66;45.85
61292;BME280;47165;42.664;23.368;2023-06-10T09:12:15;94549.50;;;24.77;45.56
61292;BME280;47165;42.664;23.368;2023-06-10T09:14:41;94539.91;;;24.97;45.84
61292;BME280;47165;42.664;23.368;2023-06-10T09:17:07;94545.31;;;25.19;47.35
61292;BME280;47165;42.664;23.368;2023-06-10T09:19:33;94540.69;;;25.27;47.12
61292;BME280;47165;42.664;23.368;2023-06-10T09:21:58;94537.84;;;25.50;47.46
61292;BME280;47165;42.664;23.368;2023-06-10T09:24:25;94535.66;;;25.61;45.51
61292;BME280;47165;42.664;23.368;2023-06-10T09:27:02;94535.72;;;25.67;45.39
61292;BME280;47165;42.664;23.368;2023-06-10T09:29:27;94529.47;;;25.82;44.28
61292;BME280;47165;42.664;23.368;2023-06-10T09:31:53;94535.22;;;26.00;45.05
61292;BME280;47165;42.664;23.368;2023-06-10T09:34:18;94529.94;;;26.07;43.84
61292;BME280;47165;42.664;23.368;2023-06-10T09:36:44;94532.19;;;26.10;42.46
61292;BME280;47165;42.664;23.368;2023-06-10T09:39:16;94527.88;;;26.09;41.94
61292;BME280;47165;42.664;23.368;2023-06-10T09:41:43;94518.34;;;26.00;42.56
61292;BME280;47165;42.664;23.368;2023-06-10T09:44:13;94521.53;;;25.88;42.76
61292;BME280;47165;42.664;23.368;2023-06-10T09:46:42;94522.03;;;25.99;41.82
61292;BME280;47165;42.664;23.368;2023-06-10T09:49:07;94520.50;;;26.11;44.79
61292;BME280;47165;42.664;23.368;2023-06-10T09:51:33;94516.34;;;26.08;44.26
61292;BME280;47165;42.664;23.368;2023-06-10T09:53:59;94520.22;;;26.34;43.12
61292;BME280;47165;42.664;23.368;2023-06-10T09:56:36;94511.75;;;26.59;40.42
61292;BME280;47165;42.664;23.368;2023-06-10T09:59:03;94510.50;;;26.61;39.08
61292;BME280;47165;42.664;23.368;2023-06-10T10:01:31;94506.66;;;26.71;39.04
61292;BME280;47165;42.664;23.368;2023-06-10T10:03:58;94510.25;;;26.56;41.50
61292;BME280;47165;42.664;23.368;2023-06-10T10:06:24;94498.44;;;26.79;40.48
61292;BME280;47165;42.664;23.368;2023-06-10T10:08:51;94496.41;;;26.87;37.80
61292;BME280;47165;42.664;23.368;2023-06-10T10:11:18;94496.88;;;26.98;38.49
61292;BME280;47165;42.664;23.368;2023-06-10T10:13:48;94488.03;;;27.10;39.25
61292;BME280;47165;42.664;23.368;2023-06-10T10:16:33;94485.59;;;27.22;42.07
61292;BME280;47165;42.664;23.368;2023-06-10T10:19:06;94485.78;;;27.21;39.94
61292;BME280;47165;42.664;23.368;2023-06-10T10:21:37;94489.28;;;27.21;38.65
61292;BME280;47165;42.664;23.368;2023-06-10T10:24:09;94474.91;;;27.29;38.04
61292;BME280;47165;42.664;23.368;2023-06-10T10:26:38;94487.41;;;27.15;38.75
61292;BME280;47165;42.664;23.368;2023-06-10T10:29:25;94479.88;;;27.32;38.73
61292;BME280;47165;42.664;23.368;2023-06-10T10:31:56;94477.63;;;27.56;39.49
61292;BME280;47165;42.664;23.368;2023-06-10T10:34:30;94485.25;;;27.79;40.44
61292;BME280;47165;42.664;23.368;2023-06-10T10:37:01;94475.38;;;27.93;39.78
61292;BME280;47165;42.664;23.368;2023-06-10T10:39:27;94474.75;;;27.77;36.29
61292;BME280;47165;42.664;23.368;2023-06-10T10:41:54;94479.50;;;28.15;37.24
61292;BME280;47165;42.664;23.368;2023-06-10T10:44:21;94466.66;;;28.37;39.45
61292;BME280;47165;42.664;23.368;2023-06-10T10:46:50;94481.06;;;28.63;39.34
61292;BME280;47165;42.664;23.368;2023-06-10T10:49:17;94473.88;;;28.50;36.55
61292;BME280;47165;42.664;23.368;2023-06-10T10:52:12;94471.16;;;28.57;35.78
61292;BME280;47165;42.664;23.368;2023-06-10T10:54:43;94463.25;;;28.68;37.78
61292;BME280;47165;42.664;23.368;2023-06-10T11:02:09;94460.56;;;28.68;37.26
61292;BME280;47165;42.664;23.368;2023-06-10T11:04:35;94454.50;;;28.86;37.63
61292;BME280;47165;42.664;23.368;2023-06-10T11:07:06;94457.25;;;29.25;37.01
61292;BME280;47165;42.664;23.368;2023-06-10T11:09:32;94459.78;;;29.45;38.34
61292;BME280;47165;42.664;23.368;2023-06-10T11:11:58;94445.63;;;29.56;37.42
61292;BME280;47165;42.664;23.368;2023-06-10T11:14:29;94438.78;;;29.60;35.78
61292;BME280;47165;42.664;23.368;2023-06-10T11:16:59;94435.88;;;29.62;34.46
61292;BME280;47165;42.664;23.368;2023-06-10T11:19:35;94431.78;;;29.84;35.23
61292;BME280;47165;42.664;23.368;2023-06-10T11:22:02;94426.94;;;29.93;34.79
61292;BME280;47165;42.664;23.368;2023-06-10T11:24:29;94434.66;;;30.08;36.24
61292;BME280;47165;42.664;23.368;2023-06-10T11:27:14;94421.16;;;30.33;34.97
61292;BME280;47165;42.664;23.368;2023-06-10T11:29:57;94419.13;;;30.65;36.29
61292;BME280;47165;42.664;23.368;2023-06-10T11:32:28;94417.63;;;30.88;36.08
61292;BME280;47165;42.664;23.368;2023-06-10T11:34:54;94413.69;;;31.02;33.68
61292;BME280;47165;42.664;23.368;2023-06-10T11:37:21;94408.09;;;29.68;36.10
61292;BME280;47165;42.664;23.368;2023-06-10T11:39:47;94411.72;;;29.80;36.06
61292;BME280;47165;42.664;23.368;2023-06-10T11:42:21;94404.31;;;30.19;35.46
61292;BME280;47165;42.664;23.368;2023-06-10T11:44:52;94401.44;;;30.88;32.42
61292;BME280;47165;42.664;23.368;2023-06-10T11:47:18;94394.56;;;31.34;33.71
61292;BME280;47165;42.664;23.368;2023-06-10T11:49:44;94395.34;;;31.65;32.21
61292;BME280;47165;42.664;23.368;2023-06-10T11:52:11;94393.84;;;31.27;32.14
61292;BME280;47165;42.664;23.368;2023-06-10T11:54:37;94390.69;;;31.30;32.47
61292;BME280;47165;42.664;23.368;2023-06-10T11:57:02;94393.16;;;31.43;33.73
61292;BME280;47165;42.664;23.368;2023-06-10T11:59:29;94383.97;;;31.21;34.81
61292;BME280;47165;42.664;23.368;2023-06-10T12:01:55;94388.66;;;31.14;33.23
61292;BME280;47165;42.664;23.368;2023-06-10T12:04:20;94389.22;;;30.85;33.56
61292;BME280;47165;42.664;23.368;2023-06-10T12:06:49;94389.19;;;31.04;33.66
61292;BME280;47165;42.664;23.368;2023-06-10T12:11:42;94384.72;;;31.40;33.00
61292;BME280;47165;42.664;23.368;2023-06-10T12:14:09;94380.38;;;30.78;34.30
61292;BME280;47165;42.664;23.368;2023-06-10T12:16:34;94389.53;;;30.77;33.51
61292;BME280;47165;42.664;23.368;2023-06-10T12:19:04;94391.97;;;30.67;34.00
61292;BME280;47165;42.664;23.368;2023-06-10T12:21:32;94379.28;;;29.94;33.01
61292;BME280;47165;42.664;23.368;2023-06-10T12:24:10;94379.56;;;29.85;32.25
61292;BME280;47165;42.664;23.368;2023-06-10T12:26:41;94372.78;;;30.01;32.66
61292;BME280;47165;42.664;23.368;2023-06-10T12:29:24;94381.72;;;30.39;30.97
61292;BME280;47165;42.664;23.368;2023-06-10T12:31:58;94372.06;;;30.31;30.70
61292;BME280;47165;42.664;23.368;2023-06-10T12:34:38;94368.84;;;30.41;30.85
61292;BME280;47165;42.664;23.368;2023-06-10T12:37:05;94365.31;;;30.59;31.24
61292;BME280;47165;42.664;23.368;2023-06-10T12:39:32;94371.09;;;30.07;33.27
61292;BME280;47165;42.664;23.368;2023-06-10T12:41:58;94367.22;;;30.40;34.44
61292;BME280;47165;42.664;23.368;2023-06-10T12:44:34;94360.69;;;30.47;35.27
61292;BME280;47165;42.664;23.368;2023-06-10T12:47:06;94349.41;;;30.39;29.44
61292;BME280;47165;42.664;23.368;2023-06-10T12:49:32;94354.03;;;30.50;28.95
61292;BME280;47165;42.664;23.368;2023-06-10T12:51:57;94352.19;;;30.81;28.02
61292;BME280;47165;42.664;23.368;2023-06-10T12:54:23;94351.50;;;30.37;28.21
61292;BME280;47165;42.664;23.368;2023-06-10T12:56:49;94358.88;;;30.04;29.41
61292;BME280;47165;42.664;23.368;2023-06-10T12:59:14;94358.56;;;29.94;29.50
61292;BME280;47165;42.664;23.368;2023-06-10T13:01:39;94361.53;;;30.30;31.01
61292;BME280;47165;42.664;23.368;2023-06-10T13:04:05;94360.03;;;30.52;30.66
61292;BME280;47165;42.664;23.368;2023-06-10T13:06:33;94362.75;;;30.27;31.61
61292;BME280;47165;42.664;23.368;2023-06-10T13:09:02;94368.34;;;30.32;32.03